createdAt,value
2017-05-09T00:00:03.532Z,10.67
2017-05-09T00:00:29.636Z,10.71
2017-05-09T00:00:55.746Z,10.67
2017-05-09T00:01:21.845Z,10.64
2017-05-09T00:01:47.948Z,10.74
2017-05-09T00:02:14.037Z,10.71
2017-05-09T00:02:40.160Z,10.72
2017-05-09T00:03:06.290Z,10.76
2017-05-09T00:03:32.428Z,10.69
2017-05-09T00:03:58.613Z,10.63
2017-05-09T00:04:24.722Z,10.64
2017-05-09T00:04:50.845Z,10.71
2017-05-09T00:05:17.002Z,10.63
2017-05-09T00:05:43.089Z,10.67
2017-05-09T00:06:09.233Z,10.69
2017-05-09T00:06:35.335Z,10.68
2017-05-09T00:07:01.428Z,10.64
2017-05-09T00:07:27.517Z,10.74
2017-05-09T00:07:53.676Z,10.72
2017-05-09T00:08:19.798Z,10.6
2017-05-09T00:08:45.887Z,10.59
2017-05-09T00:09:12.017Z,10.68
2017-05-09T00:09:38.208Z,10.64
2017-05-09T00:10:04.370Z,10.54
2017-05-09T00:10:30.462Z,10.56
2017-05-09T00:10:56.600Z,10.61
2017-05-09T00:11:22.706Z,10.54
2017-05-09T00:11:48.804Z,10.57
2017-05-09T00:12:14.893Z,10.57
2017-05-09T00:12:41.026Z,10.49
2017-05-09T00:13:07.123Z,10.42
2017-05-09T00:13:33.262Z,10.42
2017-05-09T00:13:59.417Z,10.46
2017-05-09T00:14:25.520Z,10.42
2017-05-09T00:14:51.611Z,10.42
2017-05-09T00:15:17.733Z,10.41
2017-05-09T00:15:43.846Z,10.41
2017-05-09T00:16:09.976Z,10.41
2017-05-09T00:16:36.074Z,10.42
2017-05-09T00:17:02.162Z,10.4
2017-05-09T00:17:28.291Z,10.4
2017-05-09T00:17:54.450Z,10.4
2017-05-09T00:18:20.583Z,10.44
2017-05-09T00:18:46.735Z,10.42
2017-05-09T00:19:12.869Z,10.34
2017-05-09T00:19:38.958Z,10.37
2017-05-09T00:20:05.099Z,10.34
2017-05-09T00:20:31.217Z,10.34
2017-05-09T00:20:57.346Z,10.25
2017-05-09T00:21:23.481Z,10.3
2017-05-09T00:21:49.593Z,10.33
2017-05-09T00:22:15.717Z,10.4
2017-05-09T00:22:41.881Z,10.28
2017-05-09T00:23:08.018Z,10.28
2017-05-09T00:23:34.113Z,10.33
2017-05-09T00:24:00.301Z,10.31
2017-05-09T00:24:26.415Z,10.38
2017-05-09T00:24:52.505Z,10.34
2017-05-09T00:25:18.614Z,10.3
2017-05-09T00:25:44.708Z,10.3
2017-05-09T00:26:10.796Z,10.31
2017-05-09T00:26:36.930Z,10.35
2017-05-09T00:27:03.056Z,10.23
2017-05-09T00:27:29.143Z,10.31
2017-05-09T00:27:55.296Z,10.31
2017-05-09T00:28:21.484Z,10.33
2017-05-09T00:28:47.596Z,10.25
2017-05-09T00:29:13.742Z,10.31
2017-05-09T00:29:39.846Z,10.31
2017-05-09T00:30:05.934Z,10.2
2017-05-09T00:30:32.031Z,10.3
2017-05-09T00:30:58.131Z,10.35
2017-05-09T00:31:24.222Z,10.3
2017-05-09T00:31:50.329Z,10.31
2017-05-09T00:32:16.463Z,10.33
2017-05-09T00:32:42.589Z,10.22
2017-05-09T00:33:08.775Z,10.25
2017-05-09T00:33:34.889Z,10.23
2017-05-09T00:34:01.007Z,10.23
2017-05-09T00:34:27.110Z,10.28
2017-05-09T00:34:53.203Z,10.31
2017-05-09T00:35:19.316Z,10.28
2017-05-09T00:35:45.422Z,10.31
2017-05-09T00:36:11.599Z,10.19
2017-05-09T00:36:37.687Z,10.23
2017-05-09T00:37:03.817Z,10.3
2017-05-09T00:37:29.909Z,10.2
2017-05-09T00:37:56.015Z,10.23
2017-05-09T00:38:22.159Z,10.19
2017-05-09T00:38:48.270Z,10.2
2017-05-09T00:39:14.408Z,10.3
2017-05-09T00:39:40.556Z,10.19
2017-05-09T00:40:06.670Z,10.15
2017-05-09T00:40:32.776Z,10.16
2017-05-09T00:40:58.871Z,10.15
2017-05-09T00:41:25.034Z,10.2
2017-05-09T00:41:51.188Z,10.17
2017-05-09T00:42:17.322Z,10.17
2017-05-09T00:42:43.464Z,10.15
2017-05-09T00:43:09.586Z,10.17
2017-05-09T00:43:35.697Z,10.23
2017-05-09T00:44:01.824Z,10.19
2017-05-09T00:44:27.948Z,10.15
2017-05-09T00:44:54.035Z,10.16
2017-05-09T00:45:20.161Z,10.16
2017-05-09T00:45:46.322Z,10.17
2017-05-09T00:46:12.408Z,10.17
2017-05-09T00:46:38.505Z,10.13
2017-05-09T00:47:04.612Z,10.15
2017-05-09T00:47:30.730Z,10.07
2017-05-09T00:47:56.872Z,10.1
2017-05-09T00:48:23.002Z,10.13
2017-05-09T00:48:49.093Z,10.07
2017-05-09T00:49:15.230Z,10.12
2017-05-09T00:49:41.367Z,10.07
2017-05-09T00:50:07.518Z,10.15
2017-05-09T00:50:33.634Z,10.05
2017-05-09T00:50:59.738Z,10.09
2017-05-09T00:51:25.862Z,10.15
2017-05-09T00:51:51.952Z,10.13
2017-05-09T00:52:18.077Z,10.16
2017-05-09T00:52:44.209Z,10.07
2017-05-09T00:53:10.368Z,10.16
2017-05-09T00:53:36.513Z,9.99
2017-05-09T00:54:02.658Z,10.16
2017-05-09T00:54:28.840Z,10.16
2017-05-09T00:54:54.966Z,10.15
2017-05-09T00:55:21.054Z,9.99
2017-05-09T00:55:47.156Z,10.05
2017-05-09T00:56:13.259Z,10.07
2017-05-09T00:56:39.345Z,10.12
2017-05-09T00:57:05.491Z,10.13
2017-05-09T00:57:31.594Z,10.15
2017-05-09T00:57:57.735Z,10.15
2017-05-09T00:58:23.855Z,10.07
2017-05-09T00:58:50.014Z,9.97
2017-05-09T00:59:16.158Z,9.99
2017-05-09T00:59:42.287Z,10.01
2017-05-09T01:00:08.372Z,9.99
2017-05-09T01:00:34.522Z,9.95
2017-05-09T01:01:00.657Z,9.98
2017-05-09T01:01:26.746Z,9.92
2017-05-09T01:01:52.843Z,9.95
2017-05-09T01:02:18.975Z,9.92
2017-05-09T01:02:45.070Z,9.97
2017-05-09T01:03:11.185Z,9.99
2017-05-09T01:03:37.357Z,9.95
2017-05-09T01:04:03.479Z,9.97
2017-05-09T01:04:29.591Z,9.98
2017-05-09T01:04:55.718Z,9.98
2017-05-09T01:05:21.823Z,10.02
2017-05-09T01:05:47.925Z,9.92
2017-05-09T01:06:14.060Z,9.99
2017-05-09T01:06:40.170Z,10.01
2017-05-09T01:07:06.305Z,9.95
2017-05-09T01:07:32.454Z,9.95
2017-05-09T01:07:58.591Z,9.92
2017-05-09T01:08:24.722Z,9.97
2017-05-09T01:08:50.818Z,9.97
2017-05-09T01:09:16.943Z,9.97
2017-05-09T01:09:43.097Z,9.99
2017-05-09T01:10:09.201Z,9.89
2017-05-09T01:10:35.285Z,9.94
2017-05-09T01:11:01.419Z,9.92
2017-05-09T01:11:27.550Z,9.92
2017-05-09T01:11:53.638Z,9.91
2017-05-09T01:12:19.735Z,9.92
2017-05-09T01:12:45.839Z,9.8
2017-05-09T01:13:11.953Z,9.82
2017-05-09T01:13:38.063Z,9.87
2017-05-09T01:14:04.229Z,9.83
2017-05-09T01:14:30.320Z,9.92
2017-05-09T01:14:56.532Z,9.82
2017-05-09T01:15:22.637Z,9.83
2017-05-09T01:15:48.762Z,9.92
2017-05-09T01:16:14.873Z,9.89
2017-05-09T01:16:40.957Z,9.97
2017-05-09T01:17:07.071Z,9.92
2017-05-09T01:17:33.237Z,9.8
2017-05-09T01:17:59.358Z,9.86
2017-05-09T01:18:25.473Z,9.89
2017-05-09T01:18:51.605Z,9.89
2017-05-09T01:19:17.758Z,9.89
2017-05-09T01:19:43.870Z,9.92
2017-05-09T01:20:09.997Z,9.83
2017-05-09T01:20:36.101Z,9.91
2017-05-09T01:21:02.209Z,9.91
2017-05-09T01:21:28.307Z,9.84
2017-05-09T01:21:54.397Z,9.86
2017-05-09T01:22:20.529Z,9.83
2017-05-09T01:22:46.654Z,9.84
2017-05-09T01:23:12.740Z,9.84
2017-05-09T01:23:38.842Z,9.94
2017-05-09T01:24:05.001Z,9.86
2017-05-09T01:24:31.111Z,9.89
2017-05-09T01:24:57.238Z,9.84
2017-05-09T01:25:23.368Z,9.87
2017-05-09T01:25:49.507Z,9.79
2017-05-09T01:26:15.603Z,9.8
2017-05-09T01:26:41.735Z,9.79
2017-05-09T01:27:07.849Z,9.89
2017-05-09T01:27:33.955Z,9.86
2017-05-09T01:28:00.092Z,9.79
2017-05-09T01:28:26.290Z,9.79
2017-05-09T01:28:52.448Z,9.79
2017-05-09T01:29:18.535Z,9.8
2017-05-09T01:29:44.658Z,9.84
2017-05-09T01:30:10.845Z,9.92
2017-05-09T01:30:36.965Z,9.86
2017-05-09T01:31:03.054Z,9.94
2017-05-09T01:31:29.161Z,9.82
2017-05-09T01:31:55.252Z,9.89
2017-05-09T01:32:21.341Z,9.82
2017-05-09T01:32:47.474Z,9.86
2017-05-09T01:33:13.595Z,9.73
2017-05-09T01:33:39.700Z,9.79
2017-05-09T01:34:05.792Z,9.76
2017-05-09T01:34:31.878Z,9.73
2017-05-09T01:34:57.986Z,9.73
2017-05-09T01:35:24.135Z,9.68
2017-05-09T01:35:50.220Z,9.8
2017-05-09T01:36:16.324Z,9.73
2017-05-09T01:36:42.422Z,9.72
2017-05-09T01:37:08.511Z,9.64
2017-05-09T01:37:34.642Z,9.79
2017-05-09T01:38:00.746Z,9.55
2017-05-09T01:38:26.862Z,9.56
2017-05-09T01:38:53.038Z,9.59
2017-05-09T01:39:19.176Z,9.59
2017-05-09T01:39:45.304Z,9.65
2017-05-09T01:40:11.401Z,9.56
2017-05-09T01:40:37.490Z,9.61
2017-05-09T01:41:03.672Z,9.65
2017-05-09T01:41:29.857Z,9.65
2017-05-09T01:41:55.940Z,9.61
2017-05-09T01:42:22.062Z,9.65
2017-05-09T01:42:48.194Z,9.56
2017-05-09T01:43:14.333Z,9.51
2017-05-09T01:43:40.451Z,9.55
2017-05-09T01:44:06.572Z,9.58
2017-05-09T01:44:32.732Z,9.64
2017-05-09T01:44:58.837Z,9.54
2017-05-09T01:45:24.997Z,9.55
2017-05-09T01:45:51.123Z,9.65
2017-05-09T01:46:17.255Z,9.64
2017-05-09T01:46:43.343Z,9.61
2017-05-09T01:47:09.437Z,9.56
2017-05-09T01:47:35.568Z,9.59
2017-05-09T01:48:01.688Z,9.61
2017-05-09T01:48:27.801Z,9.65
2017-05-09T01:48:53.909Z,9.59
2017-05-09T01:49:20.032Z,9.59
2017-05-09T01:49:46.154Z,9.59
2017-05-09T01:50:12.243Z,9.56
2017-05-09T01:50:38.340Z,9.61
2017-05-09T01:51:04.444Z,9.5
2017-05-09T01:51:30.534Z,9.59
2017-05-09T01:51:56.649Z,9.62
2017-05-09T01:52:22.806Z,9.58
2017-05-09T01:52:48.979Z,9.56
2017-05-09T01:53:15.093Z,9.47
2017-05-09T01:53:41.225Z,9.5
2017-05-09T01:54:07.349Z,9.51
2017-05-09T01:54:33.460Z,9.5
2017-05-09T01:54:59.561Z,9.48
2017-05-09T01:55:25.666Z,9.51
2017-05-09T01:55:51.751Z,9.48
2017-05-09T01:56:17.848Z,9.5
2017-05-09T01:56:43.952Z,9.41
2017-05-09T01:57:10.065Z,9.47
2017-05-09T01:57:36.210Z,9.5
2017-05-09T01:58:02.342Z,9.5
2017-05-09T01:58:28.513Z,9.4
2017-05-09T01:58:54.650Z,9.47
2017-05-09T01:59:20.810Z,9.47
2017-05-09T01:59:46.932Z,9.5
2017-05-09T02:00:13.068Z,9.46
2017-05-09T02:00:39.189Z,9.5
2017-05-09T02:01:05.292Z,9.47
2017-05-09T02:01:31.397Z,9.44
2017-05-09T02:01:57.487Z,9.43
2017-05-09T02:02:23.601Z,9.51
2017-05-09T02:02:49.707Z,9.47
2017-05-09T02:03:15.829Z,9.56
2017-05-09T02:03:41.917Z,9.47
2017-05-09T02:04:08.071Z,9.44
2017-05-09T02:04:34.197Z,9.44
2017-05-09T02:05:00.335Z,9.44
2017-05-09T02:05:26.434Z,9.44
2017-05-09T02:05:52.539Z,9.46
2017-05-09T02:06:18.631Z,9.46
2017-05-09T02:06:44.757Z,9.44
2017-05-09T02:07:10.863Z,9.47
2017-05-09T02:07:36.966Z,9.43
2017-05-09T02:08:03.091Z,9.31
2017-05-09T02:08:29.225Z,9.28
2017-05-09T02:08:55.327Z,9.36
2017-05-09T02:09:21.513Z,9.34
2017-05-09T02:09:47.597Z,9.34
2017-05-09T02:10:13.718Z,9.41
2017-05-09T02:10:39.823Z,9.32
2017-05-09T02:11:05.992Z,9.31
2017-05-09T02:11:32.087Z,9.36
2017-05-09T02:11:58.182Z,9.34
2017-05-09T02:12:24.283Z,9.36
2017-05-09T02:12:50.418Z,9.34
2017-05-09T02:13:16.531Z,9.29
2017-05-09T02:13:42.654Z,9.32
2017-05-09T02:14:08.787Z,9.32
2017-05-09T02:14:34.926Z,9.32
2017-05-09T02:15:01.095Z,9.32
2017-05-09T02:15:27.208Z,9.36
2017-05-09T02:15:53.321Z,9.26
2017-05-09T02:16:19.410Z,9.23
2017-05-09T02:16:45.542Z,9.23
2017-05-09T02:17:11.665Z,9.23
2017-05-09T02:17:37.767Z,9.31
2017-05-09T02:18:03.884Z,9.19
2017-05-09T02:18:30.026Z,9.28
2017-05-09T02:18:56.185Z,9.25
2017-05-09T02:19:22.277Z,9.22
2017-05-09T02:19:48.367Z,9.18
2017-05-09T02:20:14.501Z,9.25
2017-05-09T02:20:40.593Z,9.22
2017-05-09T02:21:06.679Z,9.23
2017-05-09T02:21:32.815Z,9.16
2017-05-09T02:21:58.912Z,9.11
2017-05-09T02:22:25.050Z,9.23
2017-05-09T02:22:51.207Z,9.22
2017-05-09T02:23:17.322Z,9.22
2017-05-09T02:23:43.482Z,9.11
2017-05-09T02:24:09.657Z,9.14
2017-05-09T02:24:35.794Z,9.18
2017-05-09T02:25:01.978Z,9.21
2017-05-09T02:25:28.110Z,9.11
2017-05-09T02:25:54.221Z,9.14
2017-05-09T02:26:20.375Z,9.16
2017-05-09T02:26:46.507Z,9.1
2017-05-09T02:27:12.641Z,9.04
2017-05-09T02:27:38.738Z,9.04
2017-05-09T02:28:04.870Z,9.02
2017-05-09T02:28:31.035Z,9.02
2017-05-09T02:28:57.137Z,9.1
2017-05-09T02:29:23.273Z,8.99
2017-05-09T02:29:49.374Z,9.03
2017-05-09T02:30:15.482Z,8.95
2017-05-09T02:30:41.866Z,9.11
2017-05-09T02:31:07.990Z,9.1
2017-05-09T02:31:34.096Z,9.03
2017-05-09T02:32:00.209Z,8.88
2017-05-09T02:32:26.304Z,9.03
2017-05-09T02:32:52.435Z,8.92
2017-05-09T02:33:18.551Z,9.03
2017-05-09T02:33:44.687Z,9.02
2017-05-09T02:34:10.811Z,9.08
2017-05-09T02:34:36.908Z,9
2017-05-09T02:35:03.037Z,8.99
2017-05-09T02:35:29.126Z,8.97
2017-05-09T02:35:55.243Z,9.02
2017-05-09T02:36:21.374Z,9.04
2017-05-09T02:36:47.465Z,9.04
2017-05-09T02:37:13.554Z,9.02
2017-05-09T02:37:39.718Z,9.06
2017-05-09T02:38:05.865Z,9.11
2017-05-09T02:38:31.952Z,9.02
2017-05-09T02:38:58.082Z,9.04
2017-05-09T02:39:24.180Z,9.06
2017-05-09T02:39:50.266Z,9.06
2017-05-09T02:40:16.367Z,9.03
2017-05-09T02:40:42.499Z,9.03
2017-05-09T02:41:08.584Z,9.03
2017-05-09T02:41:34.681Z,9
2017-05-09T02:42:00.787Z,9.04
2017-05-09T02:42:26.931Z,9.02
2017-05-09T02:42:53.050Z,9.04
2017-05-09T02:43:19.209Z,9.02
2017-05-09T02:43:45.351Z,9.02
2017-05-09T02:44:11.464Z,9.08
2017-05-09T02:44:37.628Z,9.02
2017-05-09T02:45:03.750Z,9
2017-05-09T02:45:29.851Z,9.02
2017-05-09T02:45:55.991Z,9
2017-05-09T02:46:22.086Z,9.04
2017-05-09T02:46:48.186Z,9.1
2017-05-09T02:47:14.279Z,9.02
2017-05-09T02:47:40.369Z,9.1
2017-05-09T02:48:06.529Z,8.95
2017-05-09T02:48:32.702Z,8.97
2017-05-09T02:48:58.791Z,8.87
2017-05-09T02:49:24.946Z,8.97
2017-05-09T02:49:51.077Z,9.03
2017-05-09T02:50:17.185Z,8.97
2017-05-09T02:50:43.362Z,8.99
2017-05-09T02:51:09.478Z,8.97
2017-05-09T02:51:35.613Z,8.89
2017-05-09T02:52:01.763Z,8.95
2017-05-09T02:52:27.850Z,8.88
2017-05-09T02:52:53.984Z,9
2017-05-09T02:53:20.080Z,8.85
2017-05-09T02:53:46.190Z,8.88
2017-05-09T02:54:12.316Z,8.95
2017-05-09T02:54:38.420Z,8.94
2017-05-09T02:55:04.581Z,8.91
2017-05-09T02:55:30.679Z,9.03
2017-05-09T02:55:56.785Z,8.91
2017-05-09T02:56:22.899Z,8.97
2017-05-09T02:56:49.027Z,8.81
2017-05-09T02:57:15.114Z,8.84
2017-05-09T02:57:41.240Z,8.91
2017-05-09T02:58:07.369Z,8.88
2017-05-09T02:58:33.479Z,8.94
2017-05-09T02:58:59.605Z,8.94
2017-05-09T02:59:25.765Z,8.87
2017-05-09T02:59:51.904Z,8.89
2017-05-09T03:00:18.048Z,8.88
2017-05-09T03:00:44.150Z,8.94
2017-05-09T03:01:10.344Z,8.87
2017-05-09T03:01:36.455Z,8.94
2017-05-09T03:02:02.557Z,8.88
2017-05-09T03:02:28.654Z,8.89
2017-05-09T03:02:54.784Z,8.94
2017-05-09T03:03:20.899Z,8.85
2017-05-09T03:03:46.994Z,8.87
2017-05-09T03:04:13.127Z,8.82
2017-05-09T03:04:39.309Z,8.79
2017-05-09T03:05:05.418Z,8.85
2017-05-09T03:05:31.526Z,8.82
2017-05-09T03:05:57.649Z,8.87
2017-05-09T03:06:23.736Z,8.87
2017-05-09T03:06:49.839Z,8.81
2017-05-09T03:07:15.936Z,8.87
2017-05-09T03:07:42.085Z,8.87
2017-05-09T03:08:08.255Z,8.84
2017-05-09T03:08:34.367Z,8.78
2017-05-09T03:09:00.559Z,8.78
2017-05-09T03:09:26.680Z,8.78
2017-05-09T03:09:52.792Z,8.87
2017-05-09T03:10:18.921Z,8.81
2017-05-09T03:10:45.019Z,8.78
2017-05-09T03:11:11.152Z,8.84
2017-05-09T03:11:37.305Z,8.89
2017-05-09T03:12:03.411Z,8.82
2017-05-09T03:12:29.518Z,8.79
2017-05-09T03:12:55.692Z,8.87
2017-05-09T03:13:21.835Z,8.78
2017-05-09T03:13:47.992Z,8.92
2017-05-09T03:14:14.172Z,8.78
2017-05-09T03:14:40.286Z,8.81
2017-05-09T03:15:06.389Z,8.85
2017-05-09T03:15:32.573Z,8.91
2017-05-09T03:15:58.656Z,8.81
2017-05-09T03:16:24.777Z,8.88
2017-05-09T03:16:50.878Z,8.79
2017-05-09T03:17:16.965Z,8.7
2017-05-09T03:17:43.061Z,8.76
2017-05-09T03:18:09.192Z,8.79
2017-05-09T03:18:35.336Z,8.87
2017-05-09T03:19:01.468Z,8.82
2017-05-09T03:19:27.602Z,8.82
2017-05-09T03:19:53.731Z,8.74
2017-05-09T03:20:19.861Z,8.82
2017-05-09T03:20:45.950Z,8.91
2017-05-09T03:21:12.045Z,8.76
2017-05-09T03:21:38.150Z,8.76
2017-05-09T03:22:04.242Z,8.74
2017-05-09T03:22:30.328Z,8.69
2017-05-09T03:22:56.465Z,8.74
2017-05-09T03:23:22.608Z,8.7
2017-05-09T03:23:48.770Z,8.71
2017-05-09T03:24:14.923Z,8.7
2017-05-09T03:24:41.021Z,8.63
2017-05-09T03:25:07.110Z,8.71
2017-05-09T03:25:33.233Z,8.74
2017-05-09T03:25:59.390Z,8.73
2017-05-09T03:26:25.472Z,8.69
2017-05-09T03:26:51.593Z,8.58
2017-05-09T03:27:17.749Z,8.69
2017-05-09T03:27:43.893Z,8.61
2017-05-09T03:28:10.018Z,8.69
2017-05-09T03:28:36.117Z,8.73
2017-05-09T03:29:02.262Z,8.7
2017-05-09T03:29:28.424Z,8.69
2017-05-09T03:29:54.526Z,8.71
2017-05-09T03:30:20.674Z,8.64
2017-05-09T03:30:46.777Z,8.67
2017-05-09T03:31:13.240Z,8.6
2017-05-09T03:31:39.359Z,8.66
2017-05-09T03:32:05.517Z,8.63
2017-05-09T03:32:31.657Z,8.58
2017-05-09T03:32:57.793Z,8.61
2017-05-09T03:33:23.926Z,8.58
2017-05-09T03:33:50.047Z,8.61
2017-05-09T03:34:16.212Z,8.56
2017-05-09T03:34:42.363Z,8.51
2017-05-09T03:35:08.460Z,8.51
2017-05-09T03:35:34.610Z,8.52
2017-05-09T03:36:00.703Z,8.52
2017-05-09T03:36:26.812Z,8.53
2017-05-09T03:36:52.920Z,8.51
2017-05-09T03:37:19.043Z,8.48
2017-05-09T03:37:45.178Z,8.51
2017-05-09T03:38:11.306Z,8.48
2017-05-09T03:38:37.431Z,8.53
2017-05-09T03:39:03.546Z,8.44
2017-05-09T03:39:29.674Z,8.49
2017-05-09T03:39:55.806Z,8.51
2017-05-09T03:40:21.916Z,8.49
2017-05-09T03:40:48.039Z,8.49
2017-05-09T03:41:14.157Z,8.55
2017-05-09T03:41:40.262Z,8.48
2017-05-09T03:42:06.358Z,8.37
2017-05-09T03:42:32.470Z,8.42
2017-05-09T03:42:58.626Z,8.42
2017-05-09T03:43:24.783Z,8.42
2017-05-09T03:43:50.890Z,8.41
2017-05-09T03:44:17.013Z,8.41
2017-05-09T03:44:43.141Z,8.36
2017-05-09T03:45:09.256Z,8.37
2017-05-09T03:45:35.349Z,8.42
2017-05-09T03:46:01.510Z,8.41
2017-05-09T03:46:27.626Z,8.37
2017-05-09T03:46:53.729Z,8.41
2017-05-09T03:47:19.842Z,8.26
2017-05-09T03:47:45.965Z,8.37
2017-05-09T03:48:12.069Z,8.41
2017-05-09T03:48:38.211Z,8.42
2017-05-09T03:49:04.352Z,8.44
2017-05-09T03:49:30.521Z,8.34
2017-05-09T03:49:56.642Z,8.37
2017-05-09T03:50:22.754Z,8.36
2017-05-09T03:50:48.886Z,8.49
2017-05-09T03:51:14.981Z,8.37
2017-05-09T03:51:41.119Z,8.45
2017-05-09T03:52:07.221Z,8.38
2017-05-09T03:52:33.312Z,8.37
2017-05-09T03:52:59.500Z,8.31
2017-05-09T03:53:25.592Z,8.31
2017-05-09T03:53:51.727Z,8.42
2017-05-09T03:54:17.863Z,8.33
2017-05-09T03:54:44.013Z,8.31
2017-05-09T03:55:10.148Z,8.34
2017-05-09T03:55:36.253Z,8.31
2017-05-09T03:56:02.378Z,8.31
2017-05-09T03:56:28.465Z,8.34
2017-05-09T03:56:54.567Z,8.31
2017-05-09T03:57:20.670Z,8.38
2017-05-09T03:57:46.761Z,8.28
2017-05-09T03:58:12.883Z,8.31
2017-05-09T03:58:39.077Z,8.31
2017-05-09T03:59:05.195Z,8.36
2017-05-09T03:59:31.350Z,8.37
2017-05-09T03:59:57.488Z,8.37
2017-05-09T04:00:23.590Z,8.37
2017-05-09T04:00:49.693Z,8.37
2017-05-09T04:01:15.800Z,8.28
2017-05-09T04:01:42.224Z,8.41
2017-05-09T04:02:08.385Z,8.34
2017-05-09T04:02:34.499Z,8.36
2017-05-09T04:03:00.666Z,8.41
2017-05-09T04:03:26.761Z,8.41
2017-05-09T04:03:52.909Z,8.37
2017-05-09T04:04:19.069Z,8.36
2017-05-09T04:04:45.179Z,8.36
2017-05-09T04:05:11.302Z,8.37
2017-05-09T04:05:37.407Z,8.41
2017-05-09T04:06:03.518Z,8.37
2017-05-09T04:06:29.636Z,8.33
2017-05-09T04:06:55.794Z,8.33
2017-05-09T04:07:21.881Z,8.42
2017-05-09T04:07:47.969Z,8.3
2017-05-09T04:08:14.132Z,8.36
2017-05-09T04:08:40.253Z,8.34
2017-05-09T04:09:06.341Z,8.34
2017-05-09T04:09:32.442Z,8.31
2017-05-09T04:09:58.541Z,8.33
2017-05-09T04:10:24.630Z,8.33
2017-05-09T04:10:50.732Z,8.24
2017-05-09T04:11:16.834Z,8.31
2017-05-09T04:11:42.920Z,8.27
2017-05-09T04:12:09.042Z,8.33
2017-05-09T04:12:35.174Z,8.36
2017-05-09T04:13:01.314Z,8.34
2017-05-09T04:13:27.435Z,8.31
2017-05-09T04:13:53.597Z,8.3
2017-05-09T04:14:19.688Z,8.33
2017-05-09T04:14:45.794Z,8.34
2017-05-09T04:15:11.900Z,8.28
2017-05-09T04:15:37.996Z,8.34
2017-05-09T04:16:04.102Z,8.28
2017-05-09T04:16:30.217Z,8.36
2017-05-09T04:16:56.335Z,8.27
2017-05-09T04:17:22.440Z,8.28
2017-05-09T04:17:48.531Z,8.28
2017-05-09T04:18:14.669Z,8.33
2017-05-09T04:18:40.776Z,8.26
2017-05-09T04:19:06.871Z,8.3
2017-05-09T04:19:33.011Z,8.26
2017-05-09T04:19:59.173Z,8.26
2017-05-09T04:20:25.290Z,8.16
2017-05-09T04:20:51.422Z,8.28
2017-05-09T04:21:17.513Z,8.28
2017-05-09T04:21:43.599Z,8.16
2017-05-09T04:22:09.704Z,8.33
2017-05-09T04:22:35.824Z,8.2
2017-05-09T04:23:01.912Z,8.24
2017-05-09T04:23:28.068Z,8.16
2017-05-09T04:23:54.271Z,8.12
2017-05-09T04:24:20.386Z,8.3
2017-05-09T04:24:46.485Z,8.3
2017-05-09T04:25:12.615Z,8.28
2017-05-09T04:25:38.706Z,8.37
2017-05-09T04:26:04.827Z,8.3
2017-05-09T04:26:30.913Z,8.3
2017-05-09T04:26:57.068Z,8.34
2017-05-09T04:27:23.192Z,8.33
2017-05-09T04:27:49.306Z,8.38
2017-05-09T04:28:15.434Z,8.41
2017-05-09T04:28:41.564Z,8.38
2017-05-09T04:29:07.675Z,8.42
2017-05-09T04:29:33.797Z,8.42
2017-05-09T04:29:59.959Z,8.44
2017-05-09T04:30:26.073Z,8.38
2017-05-09T04:30:52.190Z,8.46
2017-05-09T04:31:18.285Z,8.44
2017-05-09T04:31:44.436Z,8.48
2017-05-09T04:32:10.539Z,8.45
2017-05-09T04:32:36.702Z,8.37
2017-05-09T04:33:02.826Z,8.42
2017-05-09T04:33:28.956Z,8.49
2017-05-09T04:33:55.072Z,8.37
2017-05-09T04:34:21.189Z,8.37
2017-05-09T04:34:47.321Z,8.44
2017-05-09T04:35:13.412Z,8.41
2017-05-09T04:35:39.499Z,8.42
2017-05-09T04:36:05.635Z,8.48
2017-05-09T04:36:31.730Z,8.44
2017-05-09T04:36:57.833Z,8.46
2017-05-09T04:37:23.922Z,8.45
2017-05-09T04:37:50.017Z,8.53
2017-05-09T04:38:16.204Z,8.51
2017-05-09T04:38:42.295Z,8.51
2017-05-09T04:39:08.430Z,8.44
2017-05-09T04:39:34.644Z,8.56
2017-05-09T04:40:00.716Z,8.55
2017-05-09T04:40:26.831Z,8.56
2017-05-09T04:40:52.987Z,8.53
2017-05-09T04:41:19.113Z,8.53
2017-05-09T04:41:45.204Z,8.61
2017-05-09T04:42:11.326Z,8.52
2017-05-09T04:42:37.413Z,8.55
2017-05-09T04:43:03.605Z,8.58
2017-05-09T04:43:29.700Z,8.63
2017-05-09T04:43:55.811Z,8.51
2017-05-09T04:44:21.940Z,8.53
2017-05-09T04:44:48.095Z,8.53
2017-05-09T04:45:14.181Z,8.53
2017-05-09T04:45:40.307Z,8.61
2017-05-09T04:46:06.438Z,8.63
2017-05-09T04:46:32.520Z,8.63
2017-05-09T04:46:58.618Z,8.61
2017-05-09T04:47:24.747Z,8.64
2017-05-09T04:47:50.861Z,8.6
2017-05-09T04:48:17.016Z,8.58
2017-05-09T04:48:43.155Z,8.63
2017-05-09T04:49:09.313Z,8.6
2017-05-09T04:49:35.473Z,8.69
2017-05-09T04:50:01.583Z,8.67
2017-05-09T04:50:27.708Z,8.61
2017-05-09T04:50:53.808Z,8.61
2017-05-09T04:51:19.919Z,8.61
2017-05-09T04:51:46.013Z,8.61
2017-05-09T04:52:12.117Z,8.64
2017-05-09T04:52:38.218Z,8.63
2017-05-09T04:53:04.322Z,8.64
2017-05-09T04:53:30.506Z,8.74
2017-05-09T04:53:56.655Z,8.76
2017-05-09T04:54:22.790Z,8.73
2017-05-09T04:54:48.919Z,8.76
2017-05-09T04:55:15.042Z,8.76
2017-05-09T04:55:41.130Z,8.76
2017-05-09T04:56:07.309Z,8.74
2017-05-09T04:56:33.441Z,8.84
2017-05-09T04:56:59.527Z,8.87
2017-05-09T04:57:25.646Z,8.84
2017-05-09T04:57:51.749Z,8.87
2017-05-09T04:58:17.859Z,8.82
2017-05-09T04:58:44.033Z,8.85
2017-05-09T04:59:10.177Z,8.84
2017-05-09T04:59:36.327Z,8.78
2017-05-09T05:00:02.460Z,8.87
2017-05-09T05:00:28.596Z,8.88
2017-05-09T05:00:54.738Z,8.82
2017-05-09T05:01:20.871Z,8.84
2017-05-09T05:01:47.012Z,8.91
2017-05-09T05:02:13.155Z,8.87
2017-05-09T05:02:39.287Z,8.85
2017-05-09T05:03:05.377Z,8.92
2017-05-09T05:03:31.489Z,8.81
2017-05-09T05:03:57.597Z,8.94
2017-05-09T05:04:23.744Z,8.82
2017-05-09T05:04:49.879Z,8.81
2017-05-09T05:05:16.017Z,8.85
2017-05-09T05:05:42.136Z,8.87
2017-05-09T05:06:08.245Z,8.94
2017-05-09T05:06:34.370Z,8.99
2017-05-09T05:07:00.444Z,8.99
2017-05-09T05:07:26.550Z,8.97
2017-05-09T05:07:52.646Z,8.97
2017-05-09T05:08:18.809Z,8.94
2017-05-09T05:08:44.935Z,8.87
2017-05-09T05:09:11.113Z,8.82
2017-05-09T05:09:37.248Z,8.87
2017-05-09T05:10:03.348Z,9
2017-05-09T05:10:29.435Z,8.95
2017-05-09T05:10:55.570Z,8.95
2017-05-09T05:11:21.717Z,9.06
2017-05-09T05:11:47.829Z,9
2017-05-09T05:12:13.961Z,8.97
2017-05-09T05:12:40.060Z,8.94
2017-05-09T05:13:06.197Z,8.99
2017-05-09T05:13:32.327Z,8.99
2017-05-09T05:13:58.541Z,9.02
2017-05-09T05:14:24.626Z,9.1
2017-05-09T05:14:50.749Z,9.04
2017-05-09T05:15:16.880Z,9.08
2017-05-09T05:15:42.966Z,9.1
2017-05-09T05:16:09.067Z,9.11
2017-05-09T05:16:35.238Z,9.04
2017-05-09T05:17:01.392Z,9.08
2017-05-09T05:17:27.496Z,9.1
2017-05-09T05:17:53.579Z,9.16
2017-05-09T05:18:19.700Z,9.14
2017-05-09T05:18:45.832Z,9.11
2017-05-09T05:19:11.920Z,9.14
2017-05-09T05:19:38.013Z,9.14
2017-05-09T05:20:04.119Z,9.23
2017-05-09T05:20:30.209Z,9.29
2017-05-09T05:20:56.321Z,9.23
2017-05-09T05:21:22.423Z,9.26
2017-05-09T05:21:48.519Z,9.23
2017-05-09T05:22:14.623Z,9.19
2017-05-09T05:22:40.789Z,9.25
2017-05-09T05:23:06.882Z,9.23
2017-05-09T05:23:33.014Z,9.21
2017-05-09T05:23:59.133Z,9.23
2017-05-09T05:24:25.220Z,9.23
2017-05-09T05:24:51.358Z,9.22
2017-05-09T05:25:17.475Z,9.19
2017-05-09T05:25:43.567Z,9.25
2017-05-09T05:26:09.719Z,9.18
2017-05-09T05:26:35.843Z,9.34
2017-05-09T05:27:01.969Z,9.34
2017-05-09T05:27:28.114Z,9.29
2017-05-09T05:27:54.252Z,9.32
2017-05-09T05:28:20.411Z,9.29
2017-05-09T05:28:46.557Z,9.29
2017-05-09T05:29:12.672Z,9.23
2017-05-09T05:29:38.800Z,9.26
2017-05-09T05:30:04.953Z,9.25
2017-05-09T05:30:31.038Z,9.28
2017-05-09T05:30:57.167Z,9.26
2017-05-09T05:31:23.335Z,9.26
2017-05-09T05:31:49.408Z,9.29
2017-05-09T05:32:15.558Z,9.29
2017-05-09T05:32:41.731Z,9.29
2017-05-09T05:33:07.879Z,9.26
2017-05-09T05:33:34.006Z,9.25
2017-05-09T05:34:00.119Z,9.29
2017-05-09T05:34:26.350Z,9.23
2017-05-09T05:34:52.510Z,9.28
2017-05-09T05:35:18.620Z,9.25
2017-05-09T05:35:44.718Z,9.28
2017-05-09T05:36:10.821Z,9.25
2017-05-09T05:36:36.936Z,9.21
2017-05-09T05:37:03.057Z,9.32
2017-05-09T05:37:29.216Z,9.29
2017-05-09T05:37:55.307Z,9.36
2017-05-09T05:38:21.472Z,9.25
2017-05-09T05:38:47.601Z,9.26
2017-05-09T05:39:13.724Z,9.25
2017-05-09T05:39:39.810Z,9.4
2017-05-09T05:40:05.968Z,9.34
2017-05-09T05:40:32.093Z,9.19
2017-05-09T05:40:58.183Z,9.29
2017-05-09T05:41:24.284Z,9.31
2017-05-09T05:41:50.418Z,9.32
2017-05-09T05:42:16.503Z,9.41
2017-05-09T05:42:42.627Z,9.34
2017-05-09T05:43:08.815Z,9.46
2017-05-09T05:43:34.932Z,9.37
2017-05-09T05:44:01.057Z,9.44
2017-05-09T05:44:27.168Z,9.44
2017-05-09T05:44:53.292Z,9.43
2017-05-09T05:45:19.482Z,9.54
2017-05-09T05:45:45.592Z,9.59
2017-05-09T05:46:11.688Z,9.58
2017-05-09T05:46:37.818Z,9.55